createdAt,value
2023-05-05T00:00:17.407Z,146.16
2023-05-05T00:01:17.462Z,144.57
2023-05-05T00:02:17.587Z,144.71
2023-05-05T00:03:17.666Z,145.50
2023-05-05T00:04:17.797Z,144.78
2023-05-05T00:05:17.692Z,141.76
2023-05-05T00:06:17.757Z,139.48
2023-05-05T00:07:17.849Z,135.25
2023-05-05T00:08:17.877Z,134.76
2023-05-05T00:09:17.956Z,134.87
2023-05-05T00:10:18.017Z,132.22
2023-05-05T00:11:18.083Z,130.08
2023-05-05T00:12:18.113Z,128.72
2023-05-05T00:13:18.232Z,128.70
2023-05-05T00:14:18.243Z,124.84
2023-05-05T00:15:18.316Z,123.39
2023-05-05T00:16:18.387Z,122.07
2023-05-05T00:17:18.450Z,120.97
2023-05-05T00:18:18.527Z,119.82
2023-05-05T00:19:18.594Z,122.42
2023-05-05T00:20:18.622Z,123.11
2023-05-05T00:21:18.691Z,122.86
2023-05-05T00:22:18.754Z,124.32
2023-05-05T00:23:18.796Z,122.19
2023-05-05T00:24:18.873Z,126.84
2023-05-05T00:25:18.912Z,123.83
2023-05-05T00:26:18.982Z,126.51
2023-05-05T00:27:19.024Z,126.19
2023-05-05T00:28:19.122Z,127.11
2023-05-05T00:29:19.167Z,121.69
2023-05-05T00:30:19.224Z,124.28
2023-05-05T00:31:19.275Z,122.70
2023-05-05T00:32:19.332Z,126.75
2023-05-05T00:33:19.453Z,124.99
2023-05-05T00:34:19.468Z,126.41
2023-05-05T00:35:19.505Z,125.05
2023-05-05T00:36:19.560Z,126.59
2023-05-05T00:37:19.600Z,120.31
2023-05-05T00:38:19.759Z,127.21
2023-05-05T00:39:19.772Z,125.48
2023-05-05T00:40:19.802Z,124.20
2023-05-05T00:41:19.849Z,127.61
2023-05-05T00:42:19.940Z,122.51
2023-05-05T00:43:19.953Z,128.64
2023-05-05T00:44:20.020Z,126.94
2023-05-05T00:45:20.100Z,125.40
2023-05-05T00:46:20.208Z,126.46
2023-05-05T00:47:20.169Z,124.78
2023-05-05T00:48:20.217Z,125.26
2023-05-05T00:49:20.332Z,124.77
2023-05-05T00:50:20.359Z,127.05
2023-05-05T00:51:20.402Z,128.68
2023-05-05T00:52:20.429Z,130.11
2023-05-05T00:53:20.488Z,130.09
2023-05-05T00:54:20.507Z,133.25
2023-05-05T00:55:20.551Z,137.19
2023-05-05T00:56:20.567Z,141.06
2023-05-05T00:57:20.640Z,136.15
2023-05-05T00:58:20.622Z,139.02
2023-05-05T00:59:20.687Z,136.43
2023-05-05T01:00:20.713Z,139.84
2023-05-05T01:01:20.751Z,140.09
2023-05-05T01:02:20.744Z,136.16
2023-05-05T01:03:20.928Z,136.55
2023-05-05T01:04:20.931Z,138.61
2023-05-05T01:05:20.848Z,138.92
2023-05-05T01:06:20.938Z,135.94
2023-05-05T01:07:20.989Z,140.12
2023-05-05T01:08:20.977Z,143.16
2023-05-05T01:09:21.031Z,147.62
2023-05-05T01:10:21.166Z,145.58
2023-05-05T01:11:21.114Z,143.47
2023-05-05T01:12:21.105Z,143.49
2023-05-05T01:13:21.132Z,140.28
2023-05-05T01:14:21.142Z,145.60
2023-05-05T01:15:21.210Z,148.15
2023-05-05T01:16:21.270Z,147.22
2023-05-05T01:17:21.260Z,146.05
2023-05-05T01:18:21.343Z,144.87
2023-05-05T01:19:21.363Z,141.61
2023-05-05T01:20:21.376Z,136.43
2023-05-05T01:21:21.481Z,140.43
2023-05-05T01:22:21.533Z,137.69
2023-05-05T01:23:21.501Z,135.51
2023-05-05T01:24:21.514Z,136.27
2023-05-05T01:25:21.560Z,140.51
2023-05-05T01:26:21.561Z,139.29
2023-05-05T01:27:21.610Z,143.76
2023-05-05T01:28:21.665Z,142.67
2023-05-05T01:29:21.689Z,141.15
2023-05-05T01:30:21.747Z,139.98
2023-05-05T01:31:21.882Z,140.29
2023-05-05T01:32:21.834Z,141.94
2023-05-05T01:33:21.851Z,147.64
2023-05-05T01:34:21.869Z,142.24
2023-05-05T01:35:21.918Z,143.64
2023-05-05T01:36:21.929Z,144.05
2023-05-05T01:37:21.936Z,147.10
2023-05-05T01:38:21.961Z,146.82
2023-05-05T01:39:22.031Z,151.05
2023-05-05T01:40:22.034Z,146.01
2023-05-05T01:41:22.071Z,150.97
2023-05-05T01:42:22.109Z,144.16
2023-05-05T01:43:22.124Z,148.01
2023-05-05T01:44:22.151Z,152.91
2023-05-05T01:45:22.188Z,158.14
2023-05-05T01:46:22.383Z,160.23
2023-05-05T01:47:22.219Z,155.38
2023-05-05T01:48:22.258Z,161.59
2023-05-05T01:49:22.337Z,161.41
2023-05-05T01:50:22.352Z,158.96
2023-05-05T01:51:22.362Z,160.01
2023-05-05T01:52:22.395Z,161.01
2023-05-05T01:53:22.463Z,156.54
2023-05-05T01:54:22.463Z,156.66
2023-05-05T01:55:22.508Z,159.95
2023-05-05T01:56:22.518Z,160.67
2023-05-05T01:57:22.580Z,159.44
2023-05-05T01:58:22.593Z,163.24
2023-05-05T01:59:22.584Z,158.67
2023-05-05T02:00:22.607Z,159.37
2023-05-05T02:01:22.671Z,161.56
2023-05-05T02:02:22.711Z,162.75
2023-05-05T02:03:22.739Z,162.82
2023-05-05T02:04:22.766Z,163.07
2023-05-05T02:05:22.672Z,161.94
2023-05-05T02:06:22.696Z,162.73
2023-05-05T02:07:22.690Z,163.05
2023-05-05T02:08:22.656Z,160.20
2023-05-05T02:09:22.717Z,162.17
2023-05-05T02:10:22.694Z,159.85
2023-05-05T02:11:22.701Z,157.98
2023-05-05T02:12:22.716Z,158.11
2023-05-05T02:13:22.758Z,161.16
2023-05-05T02:14:22.754Z,157.98
2023-05-05T02:15:22.789Z,159.33
2023-05-05T02:16:22.771Z,164.04
2023-05-05T02:17:22.802Z,160.05
2023-05-05T02:18:22.782Z,165.58
2023-05-05T02:19:22.780Z,167.83
2023-05-05T02:20:22.783Z,164.70
2023-05-05T02:21:22.826Z,164.28
2023-05-05T02:22:22.831Z,169.20
2023-05-05T02:23:22.871Z,172.13
2023-05-05T02:24:22.868Z,172.30
2023-05-05T02:25:22.865Z,175.26
2023-05-05T02:26:22.884Z,178.16
2023-05-05T02:27:22.893Z,178.98
2023-05-05T02:28:22.899Z,182.65
2023-05-05T02:29:22.901Z,180.44
2023-05-05T02:30:22.902Z,180.27
2023-05-05T02:31:22.939Z,181.11
2023-05-05T02:32:22.964Z,181.01
2023-05-05T02:33:22.919Z,184.16
2023-05-05T02:34:22.904Z,187.02
2023-05-05T02:35:22.949Z,186.82
2023-05-05T02:36:22.941Z,191.42
2023-05-05T02:37:22.956Z,190.82
2023-05-05T02:38:22.963Z,192.00
2023-05-05T02:39:22.978Z,190.06
2023-05-05T02:40:22.974Z,190.02
2023-05-05T02:41:22.977Z,189.68
2023-05-05T02:42:22.990Z,188.90
2023-05-05T02:43:23.118Z,189.55
2023-05-05T02:44:23.020Z,188.49
2023-05-05T02:45:23.077Z,187.92
2023-05-05T02:46:23.156Z,186.85
2023-05-05T02:47:23.145Z,186.44
2023-05-05T02:48:23.103Z,185.68
2023-05-05T02:49:23.179Z,187.02
2023-05-05T02:50:23.168Z,187.00
2023-05-05T02:51:23.213Z,186.91
2023-05-05T02:52:23.214Z,186.59
2023-05-05T02:53:23.273Z,188.67
2023-05-05T02:54:23.273Z,189.68
2023-05-05T02:55:23.320Z,190.36
2023-05-05T02:56:23.323Z,189.74
2023-05-05T02:57:23.337Z,193.41
2023-05-05T02:58:23.425Z,198.95
2023-05-05T02:59:23.428Z,200.96
2023-05-05T03:00:23.510Z,206.40
2023-05-05T03:01:23.619Z,210.88
2023-05-05T03:02:23.696Z,210.99
2023-05-05T03:03:23.731Z,213.81
2023-05-05T03:04:23.726Z,217.51
2023-05-05T03:05:23.757Z,223.03
2023-05-05T03:06:23.849Z,223.82
2023-05-05T03:07:23.915Z,217.65
2023-05-05T03:08:23.943Z,213.28
2023-05-05T03:09:24.004Z,219.63
2023-05-05T03:10:24.046Z,225.18
2023-05-05T03:11:24.112Z,227.51
2023-05-05T03:12:24.136Z,231.58
2023-05-05T03:13:24.169Z,229.11
2023-05-05T03:14:24.188Z,226.98
2023-05-05T03:15:24.250Z,229.18
2023-05-05T03:16:24.363Z,231.37
2023-05-05T03:17:24.380Z,229.05
2023-05-05T03:18:24.400Z,228.66
2023-05-05T03:19:24.441Z,227.53
2023-05-05T03:20:24.524Z,225.09
2023-05-05T03:21:24.572Z,224.78
2023-05-05T03:22:24.581Z,221.18
2023-05-05T03:23:24.655Z,221.74
2023-05-05T03:24:24.699Z,219.29
2023-05-05T03:25:24.731Z,220.67
2023-05-05T03:26:24.751Z,216.01
2023-05-05T03:27:24.815Z,214.34
2023-05-05T03:28:24.877Z,217.95
2023-05-05T03:29:24.887Z,216.25
2023-05-05T03:30:24.963Z,215.50
2023-05-05T03:31:25.022Z,210.80
2023-05-05T03:32:25.094Z,212.11
2023-05-05T03:33:25.034Z,213.41
2023-05-05T03:34:25.090Z,207.16
2023-05-05T03:35:25.120Z,199.04
2023-05-05T03:36:26.677Z,203.49
2023-05-05T03:37:25.126Z,210.54
2023-05-05T03:38:25.148Z,213.47
2023-05-05T03:39:25.123Z,212.50
2023-05-05T03:40:32.686Z,209.92
2023-05-05T03:41:26.118Z,210.29
2023-05-05T03:42:25.108Z,210.62
2023-05-05T03:43:25.100Z,211.56
2023-05-05T03:44:25.090Z,212.94
2023-05-05T03:45:25.101Z,214.45
2023-05-05T03:46:25.103Z,218.50
2023-05-05T03:47:25.089Z,213.44
2023-05-05T03:48:25.038Z,220.03
2023-05-05T03:49:25.064Z,215.00
2023-05-05T03:50:25.048Z,208.89
2023-05-05T03:51:25.073Z,210.90
2023-05-05T03:52:25.032Z,207.41
2023-05-05T03:53:25.006Z,216.20
2023-05-05T03:54:25.045Z,218.48
2023-05-05T03:55:25.120Z,220.03
2023-05-05T03:56:25.097Z,222.17
2023-05-05T03:57:25.152Z,224.46
2023-05-05T03:58:25.177Z,223.57
2023-05-05T03:59:25.199Z,224.35
2023-05-05T04:00:25.254Z,226.28
2023-05-05T04:01:25.266Z,225.14
2023-05-05T04:02:25.405Z,224.26
2023-05-05T04:03:25.470Z,228.03
2023-05-05T04:04:25.438Z,222.67
2023-05-05T04:05:25.427Z,222.63
2023-05-05T04:06:25.460Z,224.88
2023-05-05T04:07:25.477Z,221.64
2023-05-05T04:08:25.545Z,222.47
2023-05-05T04:09:25.574Z,218.20
2023-05-05T04:10:25.613Z,219.72
2023-05-05T04:11:25.646Z,219.09
2023-05-05T04:12:25.695Z,213.13
2023-05-05T04:13:25.693Z,211.42
2023-05-05T04:14:25.721Z,213.85
2023-05-05T04:15:25.784Z,218.32
2023-05-05T04:16:25.899Z,220.18
2023-05-05T04:17:25.885Z,211.70
2023-05-05T04:18:25.855Z,215.30
2023-05-05T04:19:25.919Z,216.53
2023-05-05T04:20:25.949Z,219.46
2023-05-05T04:21:26.004Z,211.16
2023-05-05T04:22:25.991Z,211.14
2023-05-05T04:23:26.035Z,214.48
2023-05-05T04:24:26.048Z,212.22
2023-05-05T04:25:26.114Z,215.01
2023-05-05T04:26:26.157Z,215.05
2023-05-05T04:27:26.204Z,217.94
2023-05-05T04:28:26.201Z,216.53
2023-05-05T04:29:26.227Z,218.39
2023-05-05T04:30:26.250Z,215.97
2023-05-05T04:31:26.283Z,222.08
2023-05-05T04:32:26.370Z,223.59
2023-05-05T04:33:26.354Z,219.14
2023-05-05T04:34:26.370Z,220.23
2023-05-05T04:35:26.420Z,218.26
2023-05-05T04:36:26.485Z,220.39
2023-05-05T04:37:26.518Z,222.76
2023-05-05T04:38:26.614Z,222.34
2023-05-05T04:39:26.547Z,217.52
2023-05-05T04:40:26.582Z,221.28
2023-05-05T04:41:27.666Z,216.19
2023-05-05T04:42:26.677Z,217.50
2023-05-05T04:43:26.733Z,218.29
2023-05-05T04:44:26.803Z,222.05
2023-05-05T04:45:26.792Z,218.49
2023-05-05T04:46:26.885Z,217.76
2023-05-05T04:47:26.942Z,216.00
2023-05-05T04:48:26.917Z,218.19
2023-05-05T04:49:26.963Z,214.66
2023-05-05T04:50:27.014Z,216.33
2023-05-05T04:51:27.036Z,215.50
2023-05-05T04:52:27.094Z,220.18
2023-05-05T04:53:27.127Z,216.94
2023-05-05T04:54:27.205Z,215.22
2023-05-05T04:55:27.229Z,219.09
2023-05-05T04:56:27.291Z,214.89
2023-05-05T04:57:27.315Z,216.85
2023-05-05T04:58:27.343Z,217.00
2023-05-05T04:59:27.321Z,220.09
2023-05-05T05:00:27.326Z,218.63
2023-05-05T05:01:37.749Z,219.79
2023-05-05T05:02:27.399Z,220.52
2023-05-05T05:03:27.428Z,221.83
2023-05-05T05:04:27.361Z,223.35
2023-05-05T05:05:27.371Z,222.55
2023-05-05T05:06:27.324Z,223.41
2023-05-05T05:07:27.344Z,228.55
2023-05-05T05:08:27.319Z,227.31
2023-05-05T05:09:27.343Z,227.14
2023-05-05T05:10:27.383Z,228.62
2023-05-05T05:11:27.468Z,232.11
2023-05-05T05:12:27.508Z,226.46
2023-05-05T05:13:27.527Z,225.40
2023-05-05T05:14:27.562Z,229.82
2023-05-05T05:15:27.638Z,229.74
2023-05-05T05:16:27.706Z,229.49
2023-05-05T05:17:27.749Z,229.04
2023-05-05T05:18:27.743Z,230.52
2023-05-05T05:19:27.799Z,233.16
2023-05-05T05:20:27.878Z,230.41
2023-05-05T05:21:27.876Z,230.75
2023-05-05T05:22:27.933Z,231.27
2023-05-05T05:23:28.003Z,232.00
2023-05-05T05:24:28.026Z,231.94
2023-05-05T05:25:28.040Z,231.32
2023-05-05T05:26:28.070Z,231.27
2023-05-05T05:27:28.111Z,231.86
2023-05-05T05:28:28.175Z,231.06
2023-05-05T05:29:28.177Z,227.02
2023-05-05T05:30:28.263Z,221.95
2023-05-05T05:31:28.285Z,229.62
2023-05-05T05:32:28.400Z,241.63
2023-05-05T05:33:28.359Z,249.23
2023-05-05T05:34:28.428Z,248.60
2023-05-05T05:35:28.491Z,246.31
2023-05-05T05:36:28.606Z,249.99
2023-05-05T05:37:29.345Z,248.79
2023-05-05T05:38:28.605Z,250.69
2023-05-05T05:39:28.568Z,249.77
2023-05-05T05:40:28.584Z,250.00
2023-05-05T05:41:28.588Z,249.28
2023-05-05T05:42:28.901Z,245.54
2023-05-05T05:43:28.644Z,226.64
2023-05-05T05:44:28.665Z,220.88
2023-05-05T05:45:28.695Z,224.79
2023-05-05T05:46:36.283Z,211.02
2023-05-05T05:47:28.944Z,200.82
2023-05-05T05:48:28.728Z,203.76
2023-05-05T05:49:28.681Z,212.88
2023-05-05T05:50:28.774Z,215.16
2023-05-05T05:51:28.692Z,214.69
2023-05-05T05:52:29.401Z,228.46
2023-05-05T05:53:28.642Z,235.25
2023-05-05T05:54:28.687Z,240.23
2023-05-05T05:55:28.661Z,233.03
2023-05-05T05:56:28.628Z,222.89
2023-05-05T05:57:28.647Z,209.69
2023-05-05T05:58:28.602Z,195.29
2023-05-05T05:59:28.697Z,176.39
2023-05-05T06:00:28.595Z,170.59
2023-05-05T06:01:28.635Z,182.74
2023-05-05T06:02:28.772Z,188.01
2023-05-05T06:03:28.604Z,204.43
2023-05-05T06:04:28.632Z,204.35
2023-05-05T06:05:28.564Z,205.64
2023-05-05T06:06:28.599Z,217.27
2023-05-05T06:07:28.574Z,223.89
2023-05-05T06:08:28.542Z,235.45
2023-05-05T06:09:28.556Z,231.05
2023-05-05T06:10:28.718Z,229.13
2023-05-05T06:11:28.518Z,236.31
2023-05-05T06:12:28.535Z,219.01
2023-05-05T06:13:28.569Z,210.31
2023-05-05T06:14:28.669Z,195.74
2023-05-05T06:15:28.662Z,184.19
2023-05-05T06:16:28.772Z,181.48
2023-05-05T06:17:28.710Z,174.73
2023-05-05T06:18:28.750Z,165.55
2023-05-05T06:19:28.789Z,155.64
2023-05-05T06:20:28.818Z,163.96
2023-05-05T06:21:28.870Z,164.20
2023-05-05T06:22:28.942Z,161.66
2023-05-05T06:23:29.024Z,162.50
2023-05-05T06:24:29.051Z,166.41
2023-05-05T06:25:29.139Z,150.09
2023-05-05T06:26:29.165Z,165.32
2023-05-05T06:27:29.268Z,154.37
2023-05-05T06:28:29.285Z,143.29
2023-05-05T06:29:29.345Z,130.74
2023-05-05T06:30:29.441Z,114.08
2023-05-05T06:31:29.510Z,106.41
2023-05-05T06:32:29.528Z,112.95
2023-05-05T06:33:29.579Z,126.13
2023-05-05T06:34:29.630Z,138.95
2023-05-05T06:35:29.687Z,154.66
2023-05-05T06:36:29.784Z,159.82
2023-05-05T06:37:29.755Z,104.07
2023-05-05T06:38:29.903Z,82.34
2023-05-05T06:39:29.880Z,71.53
2023-05-05T06:40:29.926Z,116.50
2023-05-05T06:41:29.970Z,103.72
2023-05-05T06:42:30.011Z,82.59
2023-05-05T06:43:30.461Z,90.22
2023-05-05T06:44:29.959Z,112.56
2023-05-05T06:45:30.002Z,128.65
2023-05-05T06:46:30.119Z,132.91
2023-05-05T06:47:30.505Z,140.62
2023-05-05T06:48:30.059Z,140.73
2023-05-05T06:49:31.342Z,141.83
2023-05-05T06:50:30.257Z,121.36
2023-05-05T06:51:30.231Z,110.09
2023-05-05T06:52:30.254Z,114.66
2023-05-05T06:53:30.385Z,92.59
2023-05-05T06:54:30.332Z,103.08
2023-05-05T06:55:30.369Z,80.86
2023-05-05T06:56:30.378Z,99.94
2023-05-05T06:57:30.385Z,93.81
2023-05-05T06:58:30.439Z,118.69
2023-05-05T06:59:30.407Z,113.40
2023-05-05T07:00:30.447Z,101.84
2023-05-05T07:01:30.418Z,81.95
2023-05-05T07:02:30.427Z,60.34
2023-05-05T07:03:30.446Z,49.42
2023-05-05T07:04:30.435Z,64.08
2023-05-05T07:05:30.461Z,80.66
2023-05-05T07:06:30.571Z,94.79
2023-05-05T07:07:30.562Z,119.08
2023-05-05T07:08:30.629Z,144.29
2023-05-05T07:09:30.671Z,160.44
2023-05-05T07:10:30.741Z,149.38
2023-05-05T07:11:30.840Z,143.86
2023-05-05T07:12:30.885Z,146.19
2023-05-05T07:13:30.838Z,164.69
2023-05-05T07:14:31.099Z,172.16
2023-05-05T07:15:30.910Z,188.51
2023-05-05T07:16:31.043Z,205.72
2023-05-05T07:17:30.989Z,194.70
2023-05-05T07:18:31.964Z,202.23
2023-05-05T07:19:31.008Z,219.81
2023-05-05T07:20:31.067Z,230.31
2023-05-05T07:21:31.069Z,240.44
2023-05-05T07:22:31.065Z,244.34
2023-05-05T07:23:31.522Z,245.75
2023-05-05T07:24:31.101Z,237.30
2023-05-05T07:25:31.132Z,238.28
2023-05-05T07:26:31.093Z,226.63
2023-05-05T07:27:31.473Z,233.16
2023-05-05T07:28:31.125Z,228.40
2023-05-05T07:29:31.092Z,234.10
2023-05-05T07:30:31.155Z,245.05
2023-05-05T07:31:31.122Z,239.94
2023-05-05T07:32:31.121Z,228.89
2023-05-05T07:33:31.458Z,237.82
2023-05-05T07:34:31.122Z,246.34
2023-05-05T07:35:31.125Z,192.29
2023-05-05T07:36:31.134Z,132.15
2023-05-05T07:37:31.088Z,71.62
2023-05-05T07:38:31.098Z,35.50
2023-05-05T07:39:31.146Z,60.82
2023-05-05T07:40:31.212Z,30.99
2023-05-05T07:41:31.237Z,9.01
2023-05-05T07:42:31.314Z,46.07
2023-05-05T07:43:31.316Z,72.60
2023-05-05T07:44:31.313Z,107.80
2023-05-05T07:45:31.343Z,132.43
2023-05-05T07:46:31.548Z,135.41
2023-05-05T07:47:31.474Z,142.51
2023-05-05T07:48:31.344Z,155.25
2023-05-05T07:49:31.366Z,173.47
2023-05-05T07:50:31.377Z,194.47
2023-05-05T07:51:32.630Z,191.57
2023-05-05T07:52:45.074Z,184.64
2023-05-05T07:53:32.367Z,185.19
2023-05-05T07:54:31.312Z,187.30
2023-05-05T07:55:31.325Z,191.92
2023-05-05T07:56:31.370Z,181.24
2023-05-05T07:57:31.318Z,177.80
2023-05-05T07:58:31.309Z,198.82
2023-05-05T07:59:31.274Z,198.37
2023-05-05T08:00:31.349Z,202.72
2023-05-05T08:01:31.339Z,169.12
2023-05-05T08:02:31.495Z,183.33
2023-05-05T08:03:31.615Z,188.70
2023-05-05T08:04:31.522Z,196.59
2023-05-05T08:05:31.587Z,202.73
2023-05-05T08:06:31.628Z,208.15
2023-05-05T08:07:31.654Z,210.40
2023-05-05T08:08:31.744Z,208.16
2023-05-05T08:09:31.780Z,204.28
2023-05-05T08:10:31.930Z,206.10
2023-05-05T08:11:31.962Z,207.68
2023-05-05T08:12:31.999Z,201.67
2023-05-05T08:13:32.045Z,184.81
2023-05-05T08:14:32.119Z,186.83
2023-05-05T08:15:32.174Z,195.23
2023-05-05T08:16:32.205Z,198.70
2023-05-05T08:17:32.266Z,205.72
2023-05-05T08:18:32.370Z,210.58
2023-05-05T08:19:32.251Z,220.19
2023-05-05T08:20:32.322Z,226.20
2023-05-05T08:21:32.350Z,236.14
2023-05-05T08:22:32.371Z,243.81
2023-05-05T08:23:32.361Z,250.00
2023-05-05T08:24:32.497Z,250.00
2023-05-05T08:25:32.423Z,250.00
2023-05-05T08:26:32.438Z,250.00
2023-05-05T08:27:32.453Z,250.00
2023-05-05T08:28:32.453Z,250.00
2023-05-05T08:29:32.507Z,248.81
2023-05-05T08:30:32.523Z,248.86
2023-05-05T08:31:32.728Z,250.00
2023-05-05T08:32:32.753Z,247.24
2023-05-05T08:33:32.906Z,237.45
2023-05-05T08:34:32.998Z,241.81
2023-05-05T08:35:33.052Z,238.21
2023-05-05T08:36:33.092Z,224.19
2023-05-05T08:37:33.087Z,191.04
2023-05-05T08:38:33.088Z,183.40
2023-05-05T08:39:33.120Z,154.40
2023-05-05T08:40:33.152Z,127.69
2023-05-05T08:41:33.135Z,85.48
2023-05-05T08:42:37.299Z,39.67
2023-05-05T08:43:34.205Z,0.00
2023-05-05T08:44:33.184Z,0.00
2023-05-05T08:45:33.130Z,0.00
2023-05-05T08:46:33.157Z,0.00
2023-05-05T08:47:33.185Z,0.00
2023-05-05T08:48:33.139Z,0.00
2023-05-05T08:49:33.125Z,0.00
2023-05-05T08:50:33.239Z,12.79
2023-05-05T08:51:33.121Z,25.64
2023-05-05T08:52:33.133Z,25.65
2023-05-05T08:53:33.488Z,26.09
2023-05-05T08:54:33.187Z,27.22
2023-05-05T08:55:33.221Z,25.00
2023-05-05T08:56:33.306Z,27.86
2023-05-05T08:57:33.385Z,47.20
2023-05-05T08:58:33.370Z,44.08
2023-05-05T08:59:33.430Z,33.80
2023-05-05T09:00:33.453Z,26.95
2023-05-05T09:01:33.640Z,31.85
2023-05-05T09:02:33.650Z,25.00
2023-05-05T09:03:33.632Z,43.01
2023-05-05T09:04:33.729Z,67.76
2023-05-05T09:05:33.698Z,86.16
2023-05-05T09:06:33.912Z,101.40
2023-05-05T09:07:33.783Z,110.06
2023-05-05T09:08:34.125Z,119.00
2023-05-05T09:09:33.833Z,130.94
2023-05-05T09:10:33.875Z,142.01
2023-05-05T09:11:34.166Z,155.59
2023-05-05T09:12:33.948Z,168.65
2023-05-05T09:13:34.129Z,179.73
2023-05-05T09:14:34.180Z,190.46
2023-05-05T09:15:34.168Z,195.59
2023-05-05T09:16:34.187Z,200.92
2023-05-05T09:17:34.191Z,209.78
2023-05-05T09:18:34.200Z,214.51
2023-05-05T09:19:34.177Z,216.04
2023-05-05T09:20:34.221Z,218.44
2023-05-05T09:21:34.197Z,215.92
2023-05-05T09:22:34.216Z,214.02
2023-05-05T09:23:34.315Z,216.69
2023-05-05T09:24:34.320Z,216.20
2023-05-05T09:25:34.235Z,219.29
2023-05-05T09:26:34.297Z,217.90
2023-05-05T09:27:34.358Z,213.06
2023-05-05T09:28:34.312Z,210.84
2023-05-05T09:29:34.371Z,210.79
2023-05-05T09:30:34.321Z,210.47
2023-05-05T09:31:34.374Z,211.51
2023-05-05T09:32:34.529Z,214.10
2023-05-05T09:33:34.987Z,215.73
2023-05-05T09:34:34.456Z,215.56
2023-05-05T09:35:34.482Z,216.32
2023-05-05T09:36:34.463Z,216.90
2023-05-05T09:37:34.476Z,214.37
2023-05-05T09:38:34.613Z,209.06
2023-05-05T09:39:34.538Z,212.79
2023-05-05T09:40:34.603Z,211.63
2023-05-05T09:41:34.627Z,215.73
2023-05-05T09:42:34.650Z,220.67
2023-05-05T09:43:35.057Z,221.49
2023-05-05T09:44:34.784Z,226.10
2023-05-05T09:45:34.900Z,227.54
2023-05-05T09:46:34.940Z,232.16
2023-05-05T09:47:35.312Z,221.27
2023-05-05T09:48:35.089Z,173.01
2023-05-05T09:49:35.070Z,190.94
2023-05-05T09:50:35.226Z,171.18
2023-05-05T09:51:35.164Z,176.00
2023-05-05T09:52:35.225Z,170.99
2023-05-05T09:53:35.356Z,159.55
2023-05-05T09:54:35.413Z,161.37
2023-05-05T09:55:35.349Z,162.14
2023-05-05T09:56:35.369Z,168.09
2023-05-05T09:57:35.464Z,171.93
2023-05-05T09:58:35.585Z,176.65
2023-05-05T09:59:35.596Z,179.64
2023-05-05T10:00:36.759Z,185.60
2023-05-05T10:01:35.713Z,190.77
2023-05-05T10:02:35.796Z,190.30
2023-05-05T10:03:35.895Z,195.29
2023-05-05T10:04:36.082Z,197.19
2023-05-05T10:05:35.974Z,198.85
2023-05-05T10:06:36.052Z,198.41
2023-05-05T10:07:36.077Z,197.26
2023-05-05T10:08:36.161Z,202.22
2023-05-05T10:09:36.190Z,204.78
2023-05-05T10:10:36.248Z,208.16
2023-05-05T10:11:36.244Z,211.69
2023-05-05T10:12:36.284Z,214.99
2023-05-05T10:13:36.311Z,219.30
2023-05-05T10:14:36.337Z,220.15
2023-05-05T10:15:36.370Z,209.02
2023-05-05T10:16:36.485Z,195.30
2023-05-05T10:17:36.518Z,197.49
2023-05-05T10:18:36.521Z,198.81
2023-05-05T10:19:36.607Z,203.69
2023-05-05T10:20:36.642Z,207.50
2023-05-05T10:21:36.663Z,210.54
2023-05-05T10:22:36.659Z,215.36
2023-05-05T10:23:36.692Z,215.24
2023-05-05T10:24:36.745Z,217.48
2023-05-05T10:25:36.772Z,219.96
2023-05-05T10:26:37.039Z,222.75
2023-05-05T10:27:36.914Z,218.76
2023-05-05T10:28:36.899Z,215.30
2023-05-05T10:29:37.074Z,211.13
2023-05-05T10:30:36.984Z,216.62
2023-05-05T10:31:37.056Z,218.45
2023-05-05T10:33:38.244Z,221.91
2023-05-05T10:34:37.071Z,222.44
2023-05-05T10:35:37.009Z,222.63
2023-05-05T10:36:36.998Z,223.13
2023-05-05T10:37:37.017Z,129.65
2023-05-05T10:38:37.015Z,122.14
2023-05-05T10:39:36.945Z,62.84
2023-05-05T10:40:36.962Z,105.81
2023-05-05T10:41:36.985Z,118.44
2023-05-05T10:42:37.008Z,52.63
2023-05-05T10:43:36.961Z,41.49
2023-05-05T10:44:36.945Z,0.00
2023-05-05T10:45:37.044Z,0.00
2023-05-05T10:46:37.193Z,0.00
2023-05-05T10:47:38.085Z,0.00
2023-05-05T10:48:37.212Z,1.40
2023-05-05T10:49:37.532Z,0.00
2023-05-05T10:50:37.234Z,0.00
2023-05-05T10:51:40.978Z,0.66
2023-05-05T10:52:37.342Z,0.73
2023-05-05T10:53:37.325Z,0.00
2023-05-05T10:54:38.309Z,0.00
2023-05-05T10:55:37.300Z,0.00
2023-05-05T10:56:37.287Z,0.00
2023-05-05T10:57:37.263Z,0.00
2023-05-05T10:58:50.981Z,0.00
2023-05-05T10:59:38.811Z,0.00
2023-05-05T11:00:37.229Z,0.00
2023-05-05T11:01:37.341Z,0.00
2023-05-05T11:02:37.294Z,0.00
2023-05-05T11:03:37.313Z,0.00
2023-05-05T11:04:37.234Z,0.00
2023-05-05T11:05:37.215Z,0.00
2023-05-05T11:06:37.218Z,0.00
2023-05-05T11:07:37.212Z,0.00
2023-05-05T11:08:37.181Z,8.32
2023-05-05T11:09:37.224Z,14.59
2023-05-05T11:10:37.196Z,24.92
2023-05-05T11:11:37.178Z,18.13
2023-05-05T11:12:38.872Z,18.80
2023-05-05T11:13:37.170Z,26.58
2023-05-05T11:14:37.246Z,25.00
2023-05-05T11:15:37.233Z,34.44
2023-05-05T11:16:37.314Z,39.58
2023-05-05T11:17:37.281Z,53.80
2023-05-05T11:18:37.267Z,69.65
2023-05-05T11:19:37.314Z,79.33
2023-05-05T11:20:37.434Z,85.26
2023-05-05T11:21:37.419Z,89.34
2023-05-05T11:22:37.421Z,91.59
2023-05-05T11:23:37.528Z,94.76
2023-05-05T11:24:37.484Z,97.34
2023-05-05T11:25:38.101Z,100.52
2023-05-05T11:26:37.621Z,101.40
2023-05-05T11:27:37.629Z,101.79
2023-05-05T11:28:37.656Z,107.69
2023-05-05T11:29:37.739Z,113.02
2023-05-05T11:30:37.831Z,113.42
2023-05-05T11:31:37.808Z,116.69
2023-05-05T11:32:37.828Z,119.82
2023-05-05T11:33:37.857Z,123.35
2023-05-05T11:34:38.079Z,125.39
2023-05-05T11:35:37.931Z,128.89
2023-05-05T11:36:38.020Z,127.43
2023-05-05T11:37:38.084Z,129.57
2023-05-05T11:38:38.144Z,134.69
2023-05-05T11:39:38.132Z,139.32
2023-05-05T11:40:38.153Z,138.48
2023-05-05T11:41:38.205Z,145.14
2023-05-05T11:42:38.232Z,146.58
2023-05-05T11:43:38.278Z,146.80
2023-05-05T11:44:38.296Z,150.65
2023-05-05T11:45:38.350Z,153.68
2023-05-05T11:46:38.608Z,154.00
2023-05-05T11:47:38.401Z,155.02
2023-05-05T11:48:38.400Z,156.82
2023-05-05T11:49:38.404Z,158.41
2023-05-05T11:50:38.417Z,161.42
2023-05-05T11:51:38.402Z,163.31
2023-05-05T11:52:38.395Z,164.17
2023-05-05T11:53:38.411Z,167.20
2023-05-05T11:54:38.510Z,166.27
2023-05-05T11:55:38.454Z,163.78
2023-05-05T11:56:38.460Z,163.70
2023-05-05T11:57:38.491Z,164.14
2023-05-05T11:58:38.474Z,165.43
2023-05-05T11:59:38.548Z,168.07
2023-05-05T12:00:38.609Z,169.71
2023-05-05T12:01:38.622Z,171.30
2023-05-05T12:02:39.212Z,171.67
2023-05-05T12:03:38.782Z,168.31
2023-05-05T12:04:38.605Z,168.15
2023-05-05T12:05:38.606Z,169.19
2023-05-05T12:06:38.655Z,171.98
2023-05-05T12:07:38.781Z,171.27
2023-05-05T12:08:38.763Z,163.09
2023-05-05T12:09:38.763Z,163.29
2023-05-05T12:10:38.799Z,162.98
2023-05-05T12:11:38.795Z,159.37
2023-05-05T12:12:38.837Z,154.17
2023-05-05T12:13:39.624Z,150.27
2023-05-05T12:14:38.863Z,151.79
2023-05-05T12:15:38.870Z,157.38
2023-05-05T12:16:38.921Z,164.01
2023-05-05T12:17:38.896Z,163.70
2023-05-05T12:18:38.938Z,163.88
2023-05-05T12:19:39.009Z,167.25
2023-05-05T12:20:39.037Z,171.60
2023-05-05T12:21:39.114Z,174.33
2023-05-05T12:22:39.118Z,173.18
2023-05-05T12:23:39.145Z,172.28
2023-05-05T12:24:39.139Z,168.12
2023-05-05T12:25:39.119Z,169.92
2023-05-05T12:26:39.150Z,174.92
2023-05-05T12:27:39.300Z,175.69
2023-05-05T12:28:39.304Z,177.89
2023-05-05T12:29:39.367Z,176.55
2023-05-05T12:30:39.437Z,166.50
2023-05-05T12:31:40.163Z,157.93
2023-05-05T12:32:39.382Z,119.70
2023-05-05T12:33:39.395Z,102.89